createdAt,value
2018-06-10T00:00:05.984Z,16.00
2018-06-10T00:02:33.412Z,18.00
2018-06-10T00:05:00.865Z,17.90
2018-06-10T00:07:28.271Z,17.07
2018-06-10T00:09:55.900Z,16.30
2018-06-10T00:12:23.368Z,18.93
2018-06-10T00:14:50.800Z,17.70
2018-06-10T00:17:18.200Z,22.40
2018-06-10T00:19:45.651Z,27.57
2018-06-10T00:22:13.064Z,31.37
2018-06-10T00:24:40.520Z,34.67
2018-06-10T00:27:07.921Z,33.77
2018-06-10T00:29:35.393Z,32.17
2018-06-10T00:32:03.057Z,30.30
2018-06-10T00:34:30.443Z,26.63
2018-06-10T00:36:57.871Z,24.43
2018-06-10T00:39:25.280Z,20.70
2018-06-10T00:41:52.672Z,19.40
2018-06-10T00:44:20.668Z,18.10
2018-06-10T00:46:48.058Z,17.70
2018-06-10T00:49:15.495Z,16.50
2018-06-10T00:51:42.899Z,15.03
2018-06-10T00:54:10.352Z,13.90
2018-06-10T00:56:47.160Z,13.63
2018-06-10T00:59:14.532Z,13.77
2018-06-10T01:01:41.939Z,14.53
2018-06-10T01:04:09.949Z,13.70
2018-06-10T01:06:37.348Z,14.80
2018-06-10T01:09:07.867Z,14.37
2018-06-10T01:11:35.556Z,14.97
2018-06-10T01:14:03.108Z,14.03
2018-06-10T01:16:30.548Z,13.63
2018-06-10T01:18:58.010Z,13.03
2018-06-10T01:21:25.436Z,12.17
2018-06-10T01:23:53.827Z,12.13
2018-06-10T01:26:26.960Z,10.60
2018-06-10T01:28:54.371Z,10.33
2018-06-10T01:31:21.778Z,9.73
2018-06-10T01:33:49.179Z,11.00
2018-06-10T01:36:16.583Z,12.37
2018-06-10T01:38:43.957Z,12.73
2018-06-10T01:41:11.355Z,12.57
2018-06-10T01:43:38.743Z,11.23
2018-06-10T01:46:06.274Z,10.60
2018-06-10T01:48:33.741Z,11.97
2018-06-10T01:51:01.198Z,11.97
2018-06-10T01:53:28.608Z,12.20
2018-06-10T01:55:56.086Z,12.80
2018-06-10T01:58:23.572Z,13.43
2018-06-10T02:00:50.965Z,14.10
2018-06-10T02:03:18.348Z,13.40
2018-06-10T02:05:45.774Z,14.40
2018-06-10T02:08:13.192Z,14.63
2018-06-10T02:10:40.625Z,14.40
2018-06-10T02:13:08.011Z,13.43
2018-06-10T02:15:35.440Z,14.33
2018-06-10T02:18:02.895Z,13.90
2018-06-10T02:20:30.309Z,15.07
2018-06-10T02:22:57.776Z,15.30
2018-06-10T02:25:25.204Z,14.20
2018-06-10T02:27:52.650Z,16.67
2018-06-10T02:30:20.075Z,14.93
2018-06-10T02:32:47.516Z,14.20
2018-06-10T02:35:14.944Z,14.83
2018-06-10T02:37:42.370Z,16.33
2018-06-10T02:40:09.793Z,17.60
2018-06-10T02:42:37.329Z,17.53
2018-06-10T02:45:04.841Z,19.27
2018-06-10T02:47:32.348Z,19.60
2018-06-10T02:49:59.765Z,19.33
2018-06-10T02:52:27.224Z,20.87
2018-06-10T02:54:54.620Z,22.03
2018-06-10T02:57:22.017Z,22.80
2018-06-10T02:59:49.385Z,23.17
2018-06-10T03:02:16.804Z,22.50
2018-06-10T03:04:44.264Z,22.87
2018-06-10T03:07:11.671Z,23.37
2018-06-10T03:09:39.076Z,24.60
2018-06-10T03:12:06.492Z,23.93
2018-06-10T03:14:33.872Z,23.80
2018-06-10T03:17:01.952Z,24.00
2018-06-10T03:19:29.364Z,23.97
2018-06-10T03:21:56.772Z,23.63
2018-06-10T03:24:24.138Z,24.40
2018-06-10T03:26:51.508Z,22.50
2018-06-10T03:29:18.910Z,23.87
2018-06-10T03:31:46.321Z,23.47
2018-06-10T03:34:13.708Z,24.37
2018-06-10T03:36:41.092Z,23.30
2018-06-10T03:39:08.473Z,23.90
2018-06-10T03:41:35.853Z,21.93
2018-06-10T03:44:03.245Z,25.77
2018-06-10T03:46:30.636Z,25.50
2018-06-10T03:48:58.060Z,26.30
2018-06-10T03:51:25.452Z,28.80
2018-06-10T03:53:52.801Z,25.40
2018-06-10T03:56:20.181Z,27.00
2018-06-10T03:58:47.536Z,26.63
2018-06-10T04:01:14.964Z,25.40
2018-06-10T04:03:42.345Z,26.40
2018-06-10T04:06:09.720Z,28.47
2018-06-10T04:08:37.071Z,26.83
2018-06-10T04:11:04.564Z,28.43
2018-06-10T04:13:31.987Z,27.03
2018-06-10T04:15:59.440Z,27.40
2018-06-10T04:18:26.841Z,26.13
2018-06-10T04:20:54.216Z,28.13
2018-06-10T04:23:21.612Z,25.07
2018-06-10T04:25:48.969Z,26.50
2018-06-10T04:28:16.340Z,27.80
2018-06-10T04:30:43.780Z,25.80
2018-06-10T04:33:11.223Z,24.37
2018-06-10T04:35:38.647Z,26.10
2018-06-10T04:38:06.082Z,26.80
2018-06-10T04:40:33.484Z,26.57
2018-06-10T04:43:01.508Z,27.80
2018-06-10T04:45:28.883Z,27.90
2018-06-10T04:47:56.293Z,26.77
2018-06-10T04:50:23.704Z,26.80
2018-06-10T04:52:51.103Z,27.37
2018-06-10T04:55:18.492Z,27.43
2018-06-10T04:57:45.938Z,26.97
2018-06-10T05:00:13.360Z,27.57
2018-06-10T05:02:40.756Z,26.60
2018-06-10T05:05:08.147Z,25.37
2018-06-10T05:07:35.521Z,26.10
2018-06-10T05:10:02.933Z,27.30
2018-06-10T05:12:30.307Z,27.70
2018-06-10T05:14:57.704Z,27.10
2018-06-10T05:17:25.101Z,27.57
2018-06-10T05:19:52.575Z,28.10
2018-06-10T05:22:19.942Z,27.17
2018-06-10T05:24:47.331Z,28.50
2018-06-10T05:27:14.744Z,27.93
2018-06-10T05:29:42.132Z,27.23
2018-06-10T05:32:09.524Z,28.50
2018-06-10T05:34:36.959Z,28.80
2018-06-10T05:37:04.372Z,27.47
2018-06-10T05:39:31.752Z,26.57
2018-06-10T05:41:59.157Z,27.33
2018-06-10T05:44:26.561Z,29.83
2018-06-10T05:46:53.961Z,29.30
2018-06-10T05:49:21.368Z,29.00
2018-06-10T05:51:48.732Z,30.63
2018-06-10T05:54:16.180Z,28.90
2018-06-10T05:56:43.629Z,31.10
2018-06-10T05:59:11.027Z,28.30
2018-06-10T06:01:38.632Z,30.27
2018-06-10T06:04:06.076Z,28.50
2018-06-10T06:06:33.491Z,30.40
2018-06-10T06:09:00.931Z,29.10
2018-06-10T06:11:28.313Z,30.00
2018-06-10T06:13:55.717Z,29.40
2018-06-10T06:16:23.092Z,29.90
2018-06-10T06:18:50.482Z,29.03
2018-06-10T06:21:17.883Z,29.30
2018-06-10T06:23:45.332Z,31.33
2018-06-10T06:26:12.860Z,28.93
2018-06-10T06:28:40.835Z,31.77
2018-06-10T06:31:08.428Z,30.30
2018-06-10T06:33:35.823Z,29.67
2018-06-10T06:36:03.276Z,28.13
2018-06-10T06:38:30.630Z,30.70
2018-06-10T06:40:58.087Z,29.73
2018-06-10T06:43:25.481Z,30.00
2018-06-10T06:45:52.931Z,28.97
2018-06-10T06:48:20.363Z,29.70
2018-06-10T06:50:47.781Z,29.20
2018-06-10T06:53:15.185Z,30.33
2018-06-10T06:55:42.613Z,27.37
2018-06-10T06:58:09.996Z,24.73
2018-06-10T07:00:37.556Z,27.70
2018-06-10T07:03:05.010Z,24.13
2018-06-10T07:05:32.432Z,24.50
2018-06-10T07:07:59.859Z,23.20
2018-06-10T07:10:27.387Z,23.37
2018-06-10T07:12:54.814Z,22.93
2018-06-10T07:15:22.276Z,23.97
2018-06-10T07:17:49.746Z,26.00
2018-06-10T07:20:17.293Z,23.73
2018-06-10T07:22:44.715Z,22.23
2018-06-10T07:25:12.116Z,22.03
2018-06-10T07:27:39.564Z,22.07
2018-06-10T07:30:07.007Z,22.60
2018-06-10T07:32:34.441Z,21.20
2018-06-10T07:35:01.913Z,20.30
2018-06-10T07:37:29.388Z,20.83
2018-06-10T07:39:56.816Z,19.60
2018-06-10T07:42:24.212Z,19.40
2018-06-10T07:44:51.618Z,19.00
2018-06-10T07:47:18.995Z,18.57
2018-06-10T07:49:46.413Z,19.77
2018-06-10T07:52:13.777Z,20.33
2018-06-10T07:54:41.164Z,18.50
2018-06-10T07:57:08.560Z,19.80
2018-06-10T07:59:36.720Z,18.90
2018-06-10T08:02:04.196Z,21.00
2018-06-10T08:04:31.661Z,21.47
2018-06-10T08:06:59.101Z,20.93
2018-06-10T08:09:26.502Z,22.17
2018-06-10T08:11:53.932Z,21.90
2018-06-10T08:14:21.389Z,21.63
2018-06-10T08:16:48.805Z,24.07
2018-06-10T08:19:16.327Z,22.10
2018-06-10T08:21:43.735Z,22.27
2018-06-10T08:24:11.151Z,22.23
2018-06-10T08:26:38.609Z,22.00
2018-06-10T08:29:06.105Z,19.80
2018-06-10T08:31:33.532Z,21.20
2018-06-10T08:34:00.985Z,23.10
2018-06-10T08:36:28.551Z,23.27
2018-06-10T08:38:55.976Z,25.07
2018-06-10T08:41:26.726Z,27.40
2018-06-10T08:43:54.034Z,25.53
2018-06-10T08:46:21.192Z,25.83
2018-06-10T08:48:48.404Z,24.83
2018-06-10T08:51:16.619Z,24.83
2018-06-10T08:53:43.857Z,25.10
2018-06-10T08:56:11.080Z,25.63
2018-06-10T08:58:38.330Z,24.73
2018-06-10T09:01:05.601Z,21.87
2018-06-10T09:03:32.845Z,19.50
2018-06-10T09:06:00.150Z,19.73
2018-06-10T09:08:27.335Z,24.50
2018-06-10T09:10:54.504Z,25.40
2018-06-10T09:13:21.728Z,25.53
2018-06-10T09:15:48.920Z,26.37
2018-06-10T09:18:16.113Z,27.23
2018-06-10T09:20:43.507Z,28.00
2018-06-10T09:23:10.780Z,26.27
2018-06-10T09:25:39.784Z,27.60
2018-06-10T09:28:07.020Z,26.80
2018-06-10T09:30:34.240Z,27.53
2018-06-10T09:33:01.448Z,26.80
2018-06-10T09:35:28.947Z,29.03
2018-06-10T09:37:56.108Z,25.60
2018-06-10T09:40:23.308Z,26.27
2018-06-10T09:42:50.536Z,27.40
2018-06-10T09:45:19.749Z,27.10
2018-06-10T09:47:46.988Z,26.33
2018-06-10T09:50:14.354Z,26.03
2018-06-10T09:52:41.592Z,27.30
2018-06-10T09:55:08.884Z,26.70
2018-06-10T09:57:36.116Z,25.93
2018-06-10T10:00:03.376Z,27.60
2018-06-10T10:02:30.567Z,30.27
2018-06-10T10:04:57.744Z,29.70
2018-06-10T10:07:25.120Z,28.40
2018-06-10T10:09:52.312Z,31.23
2018-06-10T10:12:19.508Z,30.43
2018-06-10T10:14:46.760Z,28.13
2018-06-10T10:17:13.944Z,30.53
2018-06-10T10:19:41.453Z,32.07
2018-06-10T10:22:08.896Z,32.10
2018-06-10T10:24:36.330Z,31.57
2018-06-10T10:27:03.786Z,30.67
2018-06-10T10:29:31.071Z,31.60
2018-06-10T10:31:58.571Z,30.40
2018-06-10T10:34:25.976Z,28.83
2018-06-10T10:36:53.505Z,27.47
2018-06-10T10:39:32.698Z,28.23
2018-06-10T10:42:00.025Z,29.43
2018-06-10T10:44:27.240Z,27.83
2018-06-10T10:46:54.495Z,28.53
2018-06-10T10:49:21.731Z,27.80
2018-06-10T10:51:49.029Z,26.80
2018-06-10T10:54:16.552Z,26.47
2018-06-10T10:56:43.934Z,26.33
2018-06-10T10:59:11.353Z,25.63
2018-06-10T11:01:38.781Z,25.30
2018-06-10T11:04:06.198Z,23.27
2018-06-10T11:06:33.557Z,24.30
2018-06-10T11:09:00.935Z,23.97
2018-06-10T11:11:28.303Z,25.00
2018-06-10T11:13:55.619Z,25.03
2018-06-10T11:16:23.042Z,25.23
2018-06-10T11:18:50.414Z,26.47
2018-06-10T11:21:17.792Z,24.70
2018-06-10T11:23:45.290Z,24.90
2018-06-10T11:26:12.705Z,25.20
2018-06-10T11:28:40.225Z,24.93
2018-06-10T11:31:07.595Z,25.90
2018-06-10T11:33:34.970Z,26.30
2018-06-10T11:36:02.375Z,28.50
2018-06-10T11:38:29.726Z,27.90
2018-06-10T11:40:57.131Z,28.80
2018-06-10T11:43:25.129Z,27.00
2018-06-10T11:45:52.534Z,25.43
2018-06-10T11:48:22.080Z,25.30
2018-06-10T11:50:49.572Z,25.73
2018-06-10T11:53:16.954Z,26.30
2018-06-10T11:55:44.525Z,25.70
2018-06-10T11:58:11.908Z,24.40
2018-06-10T12:00:39.488Z,28.57
2018-06-10T12:03:06.911Z,27.80
2018-06-10T12:05:34.309Z,25.70
2018-06-10T12:08:01.654Z,25.77
2018-06-10T12:10:32.836Z,25.90
2018-06-10T12:13:00.150Z,26.90
2018-06-10T12:15:27.451Z,25.77
2018-06-10T12:17:54.761Z,28.23
2018-06-10T12:20:22.144Z,26.93
2018-06-10T12:22:49.559Z,25.87
2018-06-10T12:25:16.806Z,25.27
2018-06-10T12:27:46.432Z,26.37
2018-06-10T12:30:13.786Z,26.73
2018-06-10T12:32:41.070Z,29.23
2018-06-10T12:35:08.383Z,27.40
2018-06-10T12:37:35.790Z,26.37
2018-06-10T12:40:03.275Z,26.87
2018-06-10T12:42:30.740Z,26.90
2018-06-10T12:44:58.042Z,24.40
2018-06-10T12:47:25.417Z,26.20
2018-06-10T12:49:52.755Z,22.70
2018-06-10T12:52:20.081Z,24.20
2018-06-10T12:54:47.568Z,22.70
2018-06-10T12:57:14.952Z,23.50
2018-06-10T12:59:42.436Z,23.20
2018-06-10T13:02:09.851Z,20.57
2018-06-10T13:04:37.398Z,17.83
2018-06-10T13:07:04.875Z,20.20
2018-06-10T13:09:32.282Z,19.07
2018-06-10T13:11:59.770Z,18.33
2018-06-10T13:14:27.434Z,18.40
2018-06-10T13:16:54.794Z,17.90
2018-06-10T13:19:27.836Z,21.00
2018-06-10T13:21:55.218Z,19.33
2018-06-10T13:24:22.592Z,21.00
2018-06-10T13:26:49.966Z,19.90
2018-06-10T13:29:17.304Z,20.50
2018-06-10T13:31:44.771Z,20.70
2018-06-10T13:34:13.698Z,27.07
2018-06-10T13:36:41.026Z,19.63
2018-06-10T13:39:08.434Z,19.13
2018-06-10T13:41:35.847Z,19.67
2018-06-10T13:44:03.237Z,23.63
2018-06-10T13:46:30.624Z,22.43
2018-06-10T13:49:00.174Z,22.03
2018-06-10T13:51:27.635Z,23.20
2018-06-10T13:53:55.040Z,23.37
2018-06-10T13:56:22.382Z,22.43
2018-06-10T13:58:49.727Z,22.40
2018-06-10T14:01:17.075Z,25.47
2018-06-10T14:03:48.950Z,70.93
2018-06-10T14:06:16.303Z,23.37
2018-06-10T14:08:46.220Z,23.00
2018-06-10T14:11:13.931Z,22.10
2018-06-10T14:13:41.267Z,24.10
2018-06-10T14:16:08.820Z,27.60
2018-06-10T14:18:36.181Z,23.53
2018-06-10T14:21:03.617Z,23.87
2018-06-10T14:23:30.975Z,51.17
2018-06-10T14:26:03.547Z,22.40
2018-06-10T14:28:30.962Z,26.17
2018-06-10T14:30:58.286Z,19.03
2018-06-10T14:33:25.790Z,22.77
2018-06-10T14:35:53.130Z,18.90
2018-06-10T14:38:20.466Z,18.20
2018-06-10T14:40:50.408Z,17.63
2018-06-10T14:43:17.729Z,17.13
2018-06-10T14:45:45.111Z,16.30
2018-06-10T14:48:12.573Z,16.70
2018-06-10T14:50:39.908Z,15.93
2018-06-10T14:53:12.455Z,15.50
2018-06-10T14:55:42.810Z,14.53
2018-06-10T14:58:10.324Z,14.30
2018-06-10T15:00:37.654Z,15.47
2018-06-10T15:03:05.094Z,14.00
2018-06-10T15:05:35.495Z,14.43
2018-06-10T15:08:03.049Z,16.77
2018-06-10T15:10:30.474Z,15.27
2018-06-10T15:13:01.639Z,14.27
2018-06-10T15:15:29.784Z,14.50
2018-06-10T15:17:57.095Z,14.40
2018-06-10T15:20:24.398Z,13.07
2018-06-10T15:22:51.759Z,14.90
2018-06-10T15:25:19.568Z,14.60
2018-06-10T15:27:46.893Z,15.67
2018-06-10T15:30:14.309Z,16.07
2018-06-10T15:32:41.606Z,16.20
2018-06-10T15:35:08.934Z,15.33
2018-06-10T15:37:36.407Z,13.23
2018-06-10T15:40:03.833Z,13.70
2018-06-10T15:42:31.258Z,14.67
2018-06-10T15:44:58.562Z,13.90
2018-06-10T15:47:25.902Z,13.80
2018-06-10T15:49:53.207Z,14.50
2018-06-10T15:52:20.548Z,15.07
2018-06-10T15:54:47.921Z,14.30
2018-06-10T15:57:15.419Z,14.60
2018-06-10T15:59:42.758Z,14.20
2018-06-10T16:02:10.095Z,15.63
2018-06-10T16:04:37.432Z,15.40
2018-06-10T16:07:04.803Z,13.93
2018-06-10T16:09:32.338Z,14.83
2018-06-10T16:11:59.662Z,14.47
2018-06-10T16:14:26.987Z,15.90
2018-06-10T16:16:54.330Z,14.87
2018-06-10T16:19:21.634Z,13.63
2018-06-10T16:21:49.048Z,14.70
2018-06-10T16:24:16.397Z,13.57
2018-06-10T16:26:44.039Z,13.73
2018-06-10T16:29:11.455Z,14.37
2018-06-10T16:31:38.791Z,15.73
2018-06-10T16:34:06.139Z,14.20
2018-06-10T16:36:33.403Z,14.93
2018-06-10T16:39:01.186Z,14.67
2018-06-10T16:41:28.770Z,13.80
2018-06-10T16:43:56.252Z,12.67
2018-06-10T16:46:23.662Z,12.83
2018-06-10T16:48:50.964Z,13.23
2018-06-10T16:51:18.861Z,13.40
2018-06-10T16:53:46.339Z,14.27
2018-06-10T16:56:13.939Z,14.43
2018-06-10T16:58:43.246Z,14.57
2018-06-10T17:01:13.434Z,14.73
2018-06-10T17:03:43.068Z,15.07
2018-06-10T17:06:11.494Z,15.63
2018-06-10T17:08:38.909Z,14.10
2018-06-10T17:11:11.203Z,14.23
2018-06-10T17:13:38.514Z,13.63
2018-06-10T17:16:05.869Z,14.47
2018-06-10T17:18:33.293Z,14.70
2018-06-10T17:21:00.702Z,14.70
2018-06-10T17:23:28.434Z,14.30
2018-06-10T17:25:56.063Z,14.23
2018-06-10T17:28:23.414Z,14.73
2018-06-10T17:30:50.785Z,14.67
2018-06-10T17:33:18.143Z,15.00
2018-06-10T17:35:45.629Z,14.33
2018-06-10T17:38:13.002Z,14.17
2018-06-10T17:40:40.588Z,14.93
2018-06-10T17:43:08.040Z,13.83
2018-06-10T17:45:35.863Z,13.33
2018-06-10T17:48:03.322Z,13.40
2018-06-10T17:50:30.750Z,15.10
2018-06-10T17:52:58.090Z,13.50
2018-06-10T17:55:25.943Z,13.80
2018-06-10T17:57:53.343Z,13.60
2018-06-10T18:00:20.795Z,14.30
2018-06-10T18:02:48.282Z,13.57
2018-06-10T18:05:15.797Z,13.33
2018-06-10T18:07:43.219Z,12.60
2018-06-10T18:10:10.862Z,12.83
2018-06-10T18:12:38.233Z,12.60
2018-06-10T18:15:05.457Z,13.40
2018-06-10T18:17:32.807Z,12.37
2018-06-10T18:20:00.117Z,12.90
2018-06-10T18:22:27.466Z,13.10
2018-06-10T18:24:55.409Z,13.30
2018-06-10T18:27:22.758Z,13.50
2018-06-10T18:29:50.213Z,13.30
2018-06-10T18:32:17.757Z,13.43
2018-06-10T18:34:45.091Z,12.97
2018-06-10T18:37:12.564Z,13.87
2018-06-10T18:39:39.848Z,13.33
2018-06-10T18:42:07.112Z,13.63
2018-06-10T18:44:34.555Z,12.43
2018-06-10T18:47:01.797Z,13.40
2018-06-10T18:49:29.324Z,13.30
2018-06-10T18:51:56.599Z,13.97
2018-06-10T18:54:23.865Z,12.50
2018-06-10T18:56:51.148Z,13.53
2018-06-10T18:59:18.437Z,13.17
2018-06-10T19:01:45.801Z,12.00
2018-06-10T19:04:13.113Z,11.67
2018-06-10T19:06:40.431Z,12.30
2018-06-10T19:09:08.258Z,12.90
2018-06-10T19:11:35.564Z,13.20
2018-06-10T19:14:02.833Z,13.60
2018-06-10T19:16:30.159Z,12.30
2018-06-10T19:18:57.469Z,13.20
2018-06-10T19:21:24.779Z,14.67
2018-06-10T19:23:51.977Z,13.33
2018-06-10T19:26:19.736Z,12.77
2018-06-10T19:28:47.047Z,13.17
2018-06-10T19:31:14.889Z,13.00
2018-06-10T19:33:42.162Z,12.13
2018-06-10T19:36:09.533Z,13.40
2018-06-10T19:38:36.801Z,14.37
2018-06-10T19:41:04.099Z,13.50
2018-06-10T19:43:31.454Z,14.23
2018-06-10T19:45:58.842Z,13.87
2018-06-10T19:48:26.053Z,12.37
2018-06-10T19:50:53.885Z,13.50
2018-06-10T19:53:21.231Z,13.30
2018-06-10T19:55:49.466Z,13.43
2018-06-10T19:58:16.812Z,14.47
2018-06-10T20:00:44.247Z,14.47
2018-06-10T20:03:11.610Z,13.13
2018-06-10T20:05:38.872Z,13.63
2018-06-10T20:08:06.194Z,13.50
2018-06-10T20:10:33.540Z,12.50
2018-06-10T20:13:01.813Z,13.77
2018-06-10T20:15:29.123Z,14.30
2018-06-10T20:17:56.410Z,13.30
2018-06-10T20:20:23.716Z,15.10
2018-06-10T20:22:50.989Z,14.30
2018-06-10T20:25:18.336Z,15.00
2018-06-10T20:27:45.676Z,14.10
2018-06-10T20:30:13.126Z,14.50
2018-06-10T20:32:40.393Z,14.87
2018-06-10T20:35:07.608Z,14.00
2018-06-10T20:37:34.829Z,15.43
2018-06-10T20:40:02.109Z,14.73
2018-06-10T20:42:29.404Z,14.83
2018-06-10T20:44:56.758Z,14.67
2018-06-10T20:47:24.145Z,15.47
2018-06-10T20:49:51.447Z,14.93
2018-06-10T20:52:18.892Z,14.60
2018-06-10T20:54:46.337Z,15.00
2018-06-10T20:57:13.728Z,15.10
2018-06-10T20:59:40.972Z,14.80
2018-06-10T21:02:08.269Z,15.10
2018-06-10T21:04:35.512Z,14.77
2018-06-10T21:07:02.809Z,16.30
2018-06-10T21:09:30.169Z,16.57
2018-06-10T21:11:57.447Z,16.33
2018-06-10T21:14:24.831Z,17.23
2018-06-10T21:16:52.075Z,17.13
2018-06-10T21:19:19.387Z,17.77
2018-06-10T21:21:46.817Z,17.10
2018-06-10T21:24:14.101Z,18.27
2018-06-10T21:26:41.352Z,17.77
2018-06-10T21:29:08.710Z,18.03
2018-06-10T21:31:36.103Z,19.50
2018-06-10T21:34:03.399Z,19.03
2018-06-10T21:36:30.680Z,18.57
2018-06-10T21:38:58.147Z,19.10
2018-06-10T21:41:25.560Z,18.50
2018-06-10T21:43:52.996Z,18.57
2018-06-10T21:46:20.310Z,18.43
2018-06-10T21:48:47.699Z,19.00
2018-06-10T21:51:15.044Z,19.87
2018-06-10T21:53:42.541Z,19.50
2018-06-10T21:56:09.816Z,20.93
2018-06-10T21:58:37.185Z,20.77
2018-06-10T22:01:04.494Z,19.90
2018-06-10T22:03:31.861Z,19.60
2018-06-10T22:05:59.133Z,20.30
2018-06-10T22:08:39.614Z,20.77
2018-06-10T22:11:06.988Z,19.93
2018-06-10T22:13:34.479Z,20.60
2018-06-10T22:16:01.779Z,19.67
2018-06-10T22:18:29.092Z,19.40
2018-06-10T22:20:56.394Z,19.70
2018-06-10T22:23:23.790Z,19.93
2018-06-10T22:25:51.231Z,18.53
2018-06-10T22:28:18.592Z,19.70
2018-06-10T22:30:46.051Z,19.07
2018-06-10T22:33:13.815Z,19.87
2018-06-10T22:35:42.129Z,19.37
2018-06-10T22:38:15.820Z,20.47
2018-06-10T22:40:43.136Z,21.00
2018-06-10T22:43:10.501Z,20.97
2018-06-10T22:45:37.783Z,20.90
2018-06-10T22:48:05.171Z,21.20
2018-06-10T22:50:32.469Z,20.80
2018-06-10T22:54:25.024Z,19.63
2018-06-10T22:56:52.549Z,20.13
2018-06-10T22:59:30.128Z,21.20
2018-06-10T23:01:57.751Z,20.77
2018-06-10T23:04:25.237Z,20.93
2018-06-10T23:06:52.824Z,21.40
2018-06-10T23:09:22.516Z,20.83
2018-06-10T23:11:50.017Z,22.20
2018-06-10T23:14:17.509Z,19.97
2018-06-10T23:16:45.040Z,20.93
2018-06-10T23:19:12.501Z,20.03
2018-06-10T23:21:39.996Z,20.87
2018-06-10T23:24:07.496Z,20.17
2018-06-10T23:26:35.022Z,20.17
2018-06-10T23:29:02.533Z,20.00
2018-06-10T23:31:30.828Z,20.13
2018-06-10T23:33:58.256Z,19.03
2018-06-10T23:36:25.840Z,20.03
2018-06-10T23:38:53.469Z,19.80
2018-06-10T23:41:20.957Z,20.30
2018-06-10T23:43:48.525Z,20.23
2018-06-10T23:46:16.034Z,21.30
2018-06-10T23:48:43.516Z,21.47
2018-06-10T23:51:11.045Z,20.50
2018-06-10T23:53:38.614Z,21.00
2018-06-10T23:56:06.121Z,20.30
2018-06-10T23:58:33.704Z,19.20
